Woolcott, Kentucky
Current Conditions -  °F | °C
As of 7:35 PM on Saturday 20 Dec 2014 (Local Time) from KFGX Reporting Station
Overcast Overcast  
Wind Chill: 31°   Ceiling: 2400
Heat Index: 31°   Visibility: 7mi
Dew Point: 27°   Wind: 0mph
Humidity: 84%   Direction: NA
Pressure: 30.29"   Gusts: NA
Location:  38.6516°N, 84.0942°W
Report Text: KFGX 210035Z AUTO 00000KT 7SM OVC024 M01/M03 A3029 RMK AO2 T10061030
Loading
Personal Weather Stations






























Interactive Weather Map New forecast layout! Learn more

10-Day Weather Forecast

Advertisements
Track Severe Weather on mobile